createdAt,value
2019-05-03T00:01:02.452Z,11.35
2019-05-03T00:03:32.628Z,11.33
2019-05-03T00:06:05.891Z,11.30
2019-05-03T00:08:36.069Z,11.35
2019-05-03T00:11:06.268Z,11.36
2019-05-03T00:13:36.560Z,11.35
2019-05-03T00:16:14.249Z,11.31
2019-05-03T00:18:44.319Z,11.35
2019-05-03T00:21:14.429Z,11.34
2019-05-03T00:23:44.503Z,11.36
2019-05-03T00:26:14.614Z,11.35
2019-05-03T00:28:44.681Z,11.12
2019-05-03T00:31:14.788Z,10.76
2019-05-03T00:33:46.412Z,10.38
2019-05-03T00:36:18.091Z,10.13
2019-05-03T00:38:48.553Z,10.02
2019-05-03T00:41:18.647Z,9.91
2019-05-03T00:43:48.701Z,9.77
2019-05-03T00:46:18.804Z,9.84
2019-05-03T00:48:48.856Z,9.70
2019-05-03T00:51:18.943Z,9.46
2019-05-03T00:53:48.898Z,9.52
2019-05-03T00:56:18.892Z,9.45
2019-05-03T00:58:53.522Z,9.41
2019-05-03T01:01:23.611Z,9.50
2019-05-03T01:03:53.659Z,9.38
2019-05-03T01:06:23.751Z,9.34
2019-05-03T01:08:53.695Z,9.22
2019-05-03T01:11:24.082Z,9.10
2019-05-03T01:13:54.089Z,9.06
2019-05-03T01:16:25.583Z,9.04
2019-05-03T01:18:55.598Z,9.08
2019-05-03T01:21:25.698Z,9.13
2019-05-03T01:23:55.715Z,9.15
2019-05-03T01:26:25.799Z,9.15
2019-05-03T01:28:55.829Z,9.22
2019-05-03T01:31:25.906Z,9.33
2019-05-03T01:33:55.931Z,9.42
2019-05-03T01:36:26.010Z,9.52
2019-05-03T01:38:56.034Z,9.56
2019-05-03T01:41:26.108Z,9.63
2019-05-03T01:43:56.126Z,9.65
2019-05-03T01:46:26.496Z,9.66
2019-05-03T01:49:13.211Z,9.69
2019-05-03T01:52:02.100Z,9.70
2019-05-03T01:54:32.203Z,9.68
2019-05-03T01:57:02.615Z,9.64
2019-05-03T01:59:32.701Z,9.65
2019-05-03T02:02:07.088Z,9.68
2019-05-03T02:04:37.651Z,9.66
2019-05-03T02:07:07.735Z,9.63
2019-05-03T02:09:37.762Z,9.63
2019-05-03T02:12:07.935Z,9.63
2019-05-03T02:14:37.954Z,9.62
2019-05-03T02:17:08.062Z,9.57
2019-05-03T02:19:38.295Z,9.53
2019-05-03T02:22:08.386Z,9.51
2019-05-03T02:24:38.413Z,9.57
2019-05-03T02:27:08.490Z,9.58
2019-05-03T02:29:38.527Z,9.55
2019-05-03T02:32:08.604Z,9.59
2019-05-03T02:34:38.623Z,9.54
2019-05-03T02:37:08.713Z,9.56
2019-05-03T02:39:38.738Z,9.44
2019-05-03T02:42:11.729Z,9.35
2019-05-03T02:44:41.344Z,9.21
2019-05-03T02:47:19.081Z,9.24
2019-05-03T02:49:50.678Z,9.21
2019-05-03T02:52:37.178Z,9.17
2019-05-03T02:55:09.655Z,9.14
2019-05-03T02:57:39.832Z,9.04
2019-05-03T03:00:12.158Z,9.06
2019-05-03T03:02:42.464Z,9.12
2019-05-03T03:05:12.573Z,9.13
2019-05-03T03:07:45.959Z,9.12
2019-05-03T03:10:17.477Z,9.08
2019-05-03T03:12:50.661Z,9.10
2019-05-03T03:15:20.691Z,9.14
2019-05-03T03:17:56.020Z,9.18
2019-05-03T03:20:26.966Z,9.10
2019-05-03T03:22:59.259Z,9.14
2019-05-03T03:25:36.193Z,9.13
2019-05-03T03:28:08.206Z,9.10
2019-05-03T03:30:57.147Z,9.12
2019-05-03T03:33:28.043Z,9.07
2019-05-03T03:36:01.139Z,9.09
2019-05-03T03:38:27.893Z,9.02
2019-05-03T03:40:59.118Z,9.09
2019-05-03T03:43:30.951Z,9.07
2019-05-03T03:46:02.183Z,9.01
2019-05-03T03:48:35.465Z,9.04
2019-05-03T03:51:07.099Z,9.09
2019-05-03T03:53:39.623Z,9.10
2019-05-03T03:56:12.353Z,9.01
2019-05-03T03:58:46.403Z,8.95
2019-05-03T04:01:16.309Z,8.95
2019-05-03T04:03:46.399Z,8.97
2019-05-03T04:06:17.348Z,8.98
2019-05-03T04:08:47.427Z,8.90
2019-05-03T04:11:18.092Z,8.88
2019-05-03T04:13:48.380Z,8.87
2019-05-03T04:16:25.816Z,8.77
2019-05-03T04:18:59.348Z,8.67
2019-05-03T04:21:29.476Z,8.57
2019-05-03T04:23:59.550Z,8.51
2019-05-03T04:26:30.295Z,8.57
2019-05-03T04:29:00.638Z,8.62
2019-05-03T04:31:30.649Z,8.59
2019-05-03T04:34:00.744Z,8.57
2019-05-03T04:36:30.783Z,8.59
2019-05-03T04:39:00.861Z,8.56
2019-05-03T04:41:30.886Z,8.66
2019-05-03T04:44:00.977Z,8.73
2019-05-03T04:46:30.999Z,8.72
2019-05-03T04:49:01.343Z,8.66
2019-05-03T04:51:31.366Z,8.52
2019-05-03T04:54:16.452Z,8.46
2019-05-03T04:56:46.688Z,8.58
2019-05-03T04:59:16.788Z,8.68
2019-05-03T05:01:46.820Z,8.71
2019-05-03T05:04:16.921Z,8.71
2019-05-03T05:06:46.941Z,8.66
2019-05-03T05:09:17.031Z,8.63
2019-05-03T05:11:47.051Z,8.67
2019-05-03T05:14:17.152Z,8.80
2019-05-03T05:16:47.172Z,8.75
2019-05-03T05:19:25.431Z,8.65
2019-05-03T05:21:57.121Z,8.71
2019-05-03T05:24:27.199Z,8.66
2019-05-03T05:27:01.525Z,8.58
2019-05-03T05:29:34.633Z,8.56
2019-05-03T05:32:05.292Z,8.53
2019-05-03T05:34:35.448Z,8.62
2019-05-03T05:37:05.525Z,8.56
2019-05-03T05:39:35.744Z,8.61
2019-05-03T05:42:05.718Z,8.83
2019-05-03T05:44:35.794Z,9.01
2019-05-03T05:47:10.807Z,9.18
2019-05-03T05:49:45.459Z,9.01
2019-05-03T05:52:15.633Z,9.16
2019-05-03T05:54:47.372Z,9.06
2019-05-03T05:57:25.646Z,9.11
2019-05-03T06:00:09.439Z,9.33
2019-05-03T06:02:39.473Z,9.34
2019-05-03T06:05:09.636Z,8.90
2019-05-03T06:07:50.008Z,8.80
2019-05-03T06:10:21.653Z,8.90
2019-05-03T06:12:54.518Z,9.00
2019-05-03T06:15:38.443Z,9.32
2019-05-03T06:18:14.649Z,9.36
2019-05-03T06:21:01.498Z,9.27
2019-05-03T06:23:45.357Z,9.30
2019-05-03T06:26:34.669Z,9.78
2019-05-03T06:29:06.444Z,9.80
2019-05-03T06:31:55.083Z,9.88
2019-05-03T06:34:26.391Z,10.04
2019-05-03T06:36:58.043Z,10.10
2019-05-03T06:39:28.072Z,10.11
2019-05-03T06:41:58.163Z,10.03
2019-05-03T06:44:28.717Z,10.17
2019-05-03T06:47:01.103Z,10.33
2019-05-03T06:49:30.625Z,10.03
2019-05-03T06:52:00.713Z,9.93
2019-05-03T06:54:30.763Z,10.32
2019-05-03T06:57:05.739Z,10.81
2019-05-03T06:59:37.190Z,10.96
2019-05-03T07:02:08.878Z,10.67
2019-05-03T07:04:40.574Z,10.95
2019-05-03T07:07:28.903Z,10.89
2019-05-03T07:10:05.042Z,10.62
2019-05-03T07:12:54.676Z,10.67
2019-05-03T07:15:25.322Z,10.83
2019-05-03T07:17:55.806Z,11.01
2019-05-03T07:20:25.994Z,11.01
2019-05-03T07:22:56.696Z,11.31
2019-05-03T07:25:26.755Z,11.32
2019-05-03T07:27:56.845Z,11.58
2019-05-03T07:30:26.884Z,11.35
2019-05-03T07:32:58.548Z,11.17
2019-05-03T07:35:28.597Z,10.88
2019-05-03T07:37:59.338Z,11.24
2019-05-03T07:40:29.500Z,11.25
2019-05-03T07:42:59.832Z,11.21
2019-05-03T07:45:35.479Z,10.64
2019-05-03T07:48:06.666Z,10.22
2019-05-03T07:50:37.848Z,10.64
2019-05-03T07:53:11.053Z,11.08
2019-05-03T07:55:56.177Z,10.95
2019-05-03T07:58:35.121Z,10.92
2019-05-03T08:01:25.117Z,11.30
2019-05-03T08:03:58.352Z,10.98
2019-05-03T08:06:29.663Z,11.04
2019-05-03T08:09:04.864Z,10.95
2019-05-03T08:11:36.762Z,11.19
2019-05-03T08:14:09.952Z,11.15
2019-05-03T08:16:40.498Z,10.85
2019-05-03T08:19:11.831Z,11.35
2019-05-03T08:21:45.166Z,11.47
2019-05-03T08:24:16.168Z,11.50
2019-05-03T08:26:55.773Z,11.97
2019-05-03T08:29:35.002Z,11.87
2019-05-03T08:32:19.505Z,11.85
2019-05-03T08:35:10.556Z,11.62
2019-05-03T08:37:46.968Z,11.90
2019-05-03T08:40:20.241Z,11.79
2019-05-03T08:42:52.311Z,12.25
2019-05-03T08:45:23.133Z,12.33
2019-05-03T08:48:12.027Z,12.35
2019-05-03T08:50:44.951Z,12.56
2019-05-03T08:53:15.711Z,12.51
2019-05-03T08:55:46.813Z,12.69
2019-05-03T08:58:20.412Z,12.41
2019-05-03T09:00:52.064Z,11.37
2019-05-03T09:03:38.455Z,11.60
2019-05-03T09:06:11.478Z,11.73
2019-05-03T09:08:42.488Z,11.77
2019-05-03T09:11:16.476Z,11.61
2019-05-03T09:13:52.928Z,11.54
2019-05-03T09:16:25.948Z,11.47
2019-05-03T09:18:56.430Z,11.58
2019-05-03T09:21:28.425Z,11.88
2019-05-03T09:24:04.689Z,11.73
2019-05-03T09:26:36.427Z,11.41
2019-05-03T09:29:07.338Z,11.30
2019-05-03T09:31:38.214Z,11.33
2019-05-03T09:34:14.749Z,11.52
2019-05-03T09:36:52.887Z,11.57
2019-05-03T09:39:25.123Z,12.01
2019-05-03T09:41:56.374Z,11.46
2019-05-03T09:44:26.919Z,11.95
2019-05-03T09:46:57.683Z,12.47
2019-05-03T09:49:28.902Z,11.55
2019-05-03T09:52:00.697Z,12.06
2019-05-03T09:54:36.340Z,12.54
2019-05-03T09:57:06.884Z,12.70
2019-05-03T09:59:37.949Z,12.78
2019-05-03T10:02:12.570Z,13.01
2019-05-03T10:04:49.719Z,12.42
2019-05-03T10:07:25.768Z,11.85
2019-05-03T10:09:56.348Z,11.83
2019-05-03T10:12:27.018Z,11.97
2019-05-03T10:14:57.295Z,11.80
2019-05-03T10:17:36.057Z,11.83
2019-05-03T10:20:18.241Z,11.94
2019-05-03T10:22:52.238Z,12.22
2019-05-03T10:25:40.207Z,12.20
2019-05-03T10:28:10.761Z,12.88
2019-05-03T10:30:45.058Z,13.41
2019-05-03T10:33:20.582Z,13.89
2019-05-03T10:35:54.434Z,13.73
2019-05-03T10:38:28.281Z,13.39
2019-05-03T10:41:00.221Z,12.64
2019-05-03T10:43:31.708Z,12.80
2019-05-03T10:46:05.977Z,12.89
2019-05-03T10:48:36.157Z,12.74
2019-05-03T10:51:06.459Z,13.15
2019-05-03T10:53:38.176Z,13.52
2019-05-03T10:56:22.889Z,13.55
2019-05-03T10:59:03.424Z,13.76
2019-05-03T11:01:51.417Z,13.82
2019-05-03T11:04:21.511Z,13.85
2019-05-03T11:06:51.607Z,13.93
2019-05-03T11:09:21.800Z,13.74
2019-05-03T11:11:51.932Z,13.19
2019-05-03T11:14:22.149Z,13.52
2019-05-03T11:16:52.185Z,12.99
2019-05-03T11:19:22.295Z,13.18
2019-05-03T11:21:52.364Z,13.82
2019-05-03T11:24:25.065Z,14.16
2019-05-03T11:26:56.056Z,14.36
2019-05-03T11:29:26.243Z,14.03
2019-05-03T11:32:00.897Z,14.27
2019-05-03T11:34:44.990Z,14.21
2019-05-03T11:37:34.616Z,13.97
2019-05-03T11:40:06.827Z,13.47
2019-05-03T11:42:36.998Z,12.92
2019-05-03T11:45:07.861Z,12.73
2019-05-03T11:47:37.906Z,12.42
2019-05-03T11:50:08.410Z,12.54
2019-05-03T11:53:05.131Z,12.31
2019-05-03T11:55:36.764Z,12.55
2019-05-03T11:58:20.856Z,12.88
2019-05-03T12:01:11.220Z,12.96
2019-05-03T12:03:31.794Z,13.03
2019-05-03T12:06:01.909Z,13.18
2019-05-03T12:08:31.957Z,13.20
2019-05-03T12:11:02.059Z,13.03
2019-05-03T12:13:32.103Z,12.70
2019-05-03T12:16:05.461Z,13.00
2019-05-03T12:18:47.874Z,13.01
2019-05-03T12:21:08.309Z,13.49
2019-05-03T12:23:38.509Z,13.77
2019-05-03T12:26:13.136Z,14.00
2019-05-03T12:28:40.856Z,13.91
2019-05-03T12:31:25.768Z,14.35
2019-05-03T12:33:42.726Z,14.28
2019-05-03T12:36:12.831Z,14.20
2019-05-03T12:38:44.578Z,14.02
2019-05-03T12:41:15.070Z,13.79
2019-05-03T12:43:45.203Z,13.81
2019-05-03T12:46:16.876Z,13.87
2019-05-03T12:48:47.127Z,13.47
2019-05-03T12:51:17.233Z,13.61
2019-05-03T12:53:47.278Z,13.63
2019-05-03T12:56:23.727Z,13.80
2019-05-03T12:58:50.684Z,13.88
2019-05-03T13:01:41.683Z,13.94
2019-05-03T13:04:26.094Z,14.09
2019-05-03T13:07:05.345Z,14.10
2019-05-03T13:09:35.750Z,13.84
2019-05-03T13:12:07.051Z,14.21
2019-05-03T13:14:37.207Z,14.31
2019-05-03T13:17:07.413Z,14.07
2019-05-03T13:19:37.564Z,14.20
2019-05-03T13:22:07.966Z,14.11
2019-05-03T13:24:42.288Z,13.91
2019-05-03T13:27:15.689Z,14.07
2019-05-03T13:29:47.589Z,13.99
2019-05-03T13:32:20.324Z,13.91
2019-05-03T13:34:55.333Z,13.96
2019-05-03T13:37:25.958Z,14.10
2019-05-03T13:39:56.097Z,14.19
2019-05-03T13:42:26.728Z,14.22
2019-05-03T13:44:58.525Z,14.01
2019-05-03T13:47:29.166Z,14.21
2019-05-03T13:50:02.552Z,14.04
2019-05-03T13:52:34.671Z,13.85
2019-05-03T13:55:08.825Z,13.74
2019-05-03T13:57:39.216Z,13.94
2019-05-03T14:00:11.325Z,14.15
2019-05-03T14:02:41.789Z,14.12
2019-05-03T14:05:12.551Z,13.92
2019-05-03T14:07:44.662Z,13.84
2019-05-03T14:10:15.642Z,14.11
2019-05-03T14:12:46.044Z,14.42
2019-05-03T14:15:20.070Z,14.57
2019-05-03T14:17:55.074Z,14.55
2019-05-03T14:20:42.931Z,14.73
2019-05-03T14:23:17.402Z,14.83
2019-05-03T14:25:51.718Z,14.37
2019-05-03T14:28:22.467Z,13.93
2019-05-03T14:30:54.601Z,13.93
2019-05-03T14:33:28.352Z,13.81
2019-05-03T14:35:57.902Z,13.76
2019-05-03T14:38:30.490Z,13.82
2019-05-03T14:41:00.396Z,13.81
2019-05-03T14:43:30.851Z,13.81
2019-05-03T14:46:05.446Z,13.83
2019-05-03T14:48:36.776Z,13.69
2019-05-03T14:51:08.340Z,13.74
2019-05-03T14:53:39.993Z,13.95
2019-05-03T14:56:28.821Z,14.11
2019-05-03T14:59:19.479Z,14.16
2019-05-03T15:01:55.230Z,14.19
2019-05-03T15:04:29.009Z,14.21
2019-05-03T15:07:00.257Z,14.09
2019-05-03T15:09:31.246Z,13.76
2019-05-03T15:12:05.552Z,13.47
2019-05-03T15:14:38.614Z,13.57
2019-05-03T15:17:09.465Z,13.41
2019-05-03T15:19:40.460Z,13.56
2019-05-03T15:22:10.722Z,13.63
2019-05-03T15:24:41.766Z,13.67
2019-05-03T15:27:15.973Z,13.77
2019-05-03T15:29:48.215Z,13.78
2019-05-03T15:32:25.760Z,13.66
2019-05-03T15:34:58.211Z,13.39
2019-05-03T15:37:28.853Z,13.52
2019-05-03T15:40:01.060Z,13.53
2019-05-03T15:42:31.813Z,13.51
2019-05-03T15:45:10.302Z,13.39
2019-05-03T15:47:45.015Z,13.47
2019-05-03T15:50:16.561Z,13.54
2019-05-03T15:52:51.355Z,13.56
2019-05-03T15:55:24.548Z,13.46
2019-05-03T15:58:18.351Z,13.40
2019-05-03T16:00:35.587Z,13.39
2019-05-03T16:03:11.272Z,13.29
2019-05-03T16:05:44.724Z,13.30
2019-05-03T16:08:16.005Z,13.08
2019-05-03T16:10:48.730Z,13.13
2019-05-03T16:13:25.504Z,13.03
2019-05-03T16:16:04.360Z,12.99
2019-05-03T16:18:35.370Z,12.86
2019-05-03T16:21:06.526Z,12.71
2019-05-03T16:23:38.055Z,12.69
2019-05-03T16:26:09.880Z,12.61
2019-05-03T16:28:59.734Z,12.61
2019-05-03T16:31:42.182Z,12.66
2019-05-03T16:34:12.685Z,12.60
2019-05-03T16:36:45.530Z,12.56
2019-05-03T16:39:17.762Z,12.66
2019-05-03T16:41:50.740Z,12.71
2019-05-03T16:44:21.507Z,12.63
2019-05-03T16:46:52.136Z,12.57
2019-05-03T16:49:27.291Z,12.58
2019-05-03T16:52:49.374Z,12.50
2019-05-03T16:54:36.050Z,12.47
2019-05-03T16:57:09.743Z,12.47
2019-05-03T17:01:20.254Z,12.48
2019-05-03T17:02:17.350Z,12.44
2019-05-03T17:04:57.677Z,12.42
2019-05-03T17:07:46.936Z,12.36
2019-05-03T17:10:22.215Z,12.23
2019-05-03T17:13:00.932Z,12.19
2019-05-03T17:15:31.419Z,12.18
2019-05-03T17:18:06.421Z,12.10
2019-05-03T17:20:51.768Z,12.12
2019-05-03T17:23:19.721Z,12.18
2019-05-03T17:25:57.487Z,12.14
2019-05-03T17:28:30.953Z,12.13
2019-05-03T17:31:04.749Z,12.09
2019-05-03T17:33:36.207Z,12.09
2019-05-03T17:36:06.300Z,11.97
2019-05-03T17:38:38.028Z,12.00
2019-05-03T17:41:11.352Z,12.00
2019-05-03T17:43:55.265Z,12.03
2019-05-03T17:46:31.211Z,11.93
2019-05-03T17:49:02.706Z,11.95
2019-05-03T17:51:45.466Z,11.80
2019-05-03T17:54:16.953Z,11.79
2019-05-03T17:56:55.176Z,11.79
2019-05-03T17:59:34.933Z,11.73
2019-05-03T18:02:22.525Z,11.73
2019-05-03T18:05:10.636Z,11.66
2019-05-03T18:07:45.336Z,11.67
2019-05-03T18:10:15.908Z,11.67
2019-05-03T18:12:45.962Z,11.62
2019-05-03T18:15:16.085Z,11.59
2019-05-03T18:17:46.107Z,11.56
2019-05-03T18:20:16.255Z,11.52
2019-05-03T18:22:46.312Z,11.40
2019-05-03T18:25:16.450Z,11.36
2019-05-03T18:27:46.501Z,11.29
2019-05-03T18:30:17.086Z,11.25
2019-05-03T18:32:47.227Z,11.15
2019-05-03T18:35:17.338Z,11.12
2019-05-03T18:37:51.213Z,11.08
2019-05-03T18:40:21.824Z,11.00
2019-05-03T18:42:55.175Z,10.97
2019-05-03T18:45:31.091Z,10.96
2019-05-03T18:48:01.978Z,10.88
2019-05-03T18:50:36.735Z,10.83
2019-05-03T18:59:49.748Z,10.62
2019-05-03T19:02:21.653Z,10.50
2019-05-03T19:05:00.544Z,10.52
2019-05-03T19:07:35.960Z,10.48
2019-05-03T19:10:12.282Z,10.51
2019-05-03T19:12:49.129Z,10.50
2019-05-03T19:15:29.951Z,10.43
2019-05-03T19:18:09.456Z,10.47
2019-05-03T19:20:40.154Z,10.42
2019-05-03T19:23:12.220Z,10.45
2019-05-03T19:25:49.032Z,10.41
2019-05-03T19:28:16.677Z,10.38
2019-05-03T19:30:47.484Z,10.30
2019-05-03T19:33:17.560Z,10.33
2019-05-03T19:35:47.716Z,10.34
2019-05-03T19:38:17.915Z,10.34
2019-05-03T19:41:03.836Z,10.36
2019-05-03T19:43:27.130Z,10.34
2019-05-03T19:49:06.941Z,10.35
2019-05-03T19:51:37.272Z,10.24
2019-05-03T19:57:12.634Z,10.12
2019-05-03T19:59:44.569Z,10.09
2019-05-03T20:02:16.472Z,10.02
2019-05-03T20:05:07.290Z,9.95
2019-05-03T20:07:42.040Z,9.81
2019-05-03T20:10:18.174Z,9.81
2019-05-03T20:12:53.520Z,9.77
2019-05-03T20:15:29.484Z,9.63
2019-05-03T20:18:04.783Z,9.59
2019-05-03T20:20:36.455Z,9.58
2019-05-03T20:29:29.510Z,9.41
2019-05-03T20:32:00.328Z,9.39
2019-05-03T20:34:31.981Z,9.36
2019-05-03T20:37:02.881Z,9.40
2019-05-03T20:39:46.590Z,9.34
2019-05-03T20:42:39.884Z,9.27
2019-05-03T20:45:14.615Z,9.20
2019-05-03T20:47:59.169Z,9.04
2019-05-03T20:50:30.941Z,9.00
2019-05-03T20:53:01.915Z,8.98
2019-05-03T20:55:40.617Z,8.84
2019-05-03T20:58:11.470Z,8.76
2019-05-03T21:00:41.882Z,8.67
2019-05-03T21:03:11.989Z,8.71
2019-05-03T21:05:42.029Z,8.67
2019-05-03T21:08:12.126Z,8.68
2019-05-03T21:10:42.188Z,8.65
2019-05-03T21:13:12.292Z,8.67
2019-05-03T21:15:49.927Z,8.69
2019-05-03T21:18:27.582Z,8.67
2019-05-03T21:20:59.190Z,8.61
2019-05-03T21:23:30.877Z,8.61
2019-05-03T21:26:12.064Z,8.60
2019-05-03T21:28:34.820Z,8.54
2019-05-03T21:31:05.653Z,8.50
2019-05-03T21:33:35.963Z,8.53
2019-05-03T21:36:06.000Z,8.53
2019-05-03T21:38:36.093Z,8.43
2019-05-03T21:41:06.229Z,8.44
2019-05-03T21:43:36.315Z,8.44
2019-05-03T21:46:16.973Z,8.39
2019-05-03T21:48:48.631Z,8.40
2019-05-03T21:51:18.771Z,8.36
2019-05-03T21:53:48.864Z,8.38
2019-05-03T21:56:18.905Z,8.27
2019-05-03T21:58:48.996Z,8.20
2019-05-03T22:01:19.036Z,8.08
2019-05-03T22:03:49.146Z,7.95
2019-05-03T22:06:19.229Z,7.95
2019-05-03T22:08:49.327Z,8.00
2019-05-03T22:11:19.403Z,8.03
2019-05-03T22:13:51.081Z,8.06
2019-05-03T22:16:24.539Z,8.06
2019-05-03T22:18:54.716Z,7.97
2019-05-03T22:21:29.098Z,7.96
2019-05-03T22:24:06.981Z,8.04
2019-05-03T22:26:54.731Z,8.09
2019-05-03T22:29:25.461Z,8.00
2019-05-03T22:31:55.860Z,8.03
2019-05-03T22:34:26.034Z,8.12
2019-05-03T22:36:56.091Z,8.11
2019-05-03T22:39:26.194Z,8.11
2019-05-03T22:41:56.494Z,8.11
2019-05-03T22:44:26.588Z,8.11
2019-05-03T22:46:56.633Z,8.14
2019-05-03T22:49:26.736Z,8.19
2019-05-03T22:51:56.776Z,8.21
2019-05-03T22:54:26.867Z,8.17
2019-05-03T22:56:56.909Z,8.17
2019-05-03T22:59:27.008Z,8.13
2019-05-03T23:01:57.072Z,8.16
2019-05-03T23:04:27.147Z,8.10
2019-05-03T23:06:57.421Z,8.14
2019-05-03T23:09:28.557Z,8.15
2019-05-03T23:11:58.710Z,8.15
2019-05-03T23:14:28.740Z,8.17
2019-05-03T23:16:58.820Z,8.14
2019-05-03T23:19:28.955Z,8.22
2019-05-03T23:22:09.665Z,8.20
2019-05-03T23:24:39.697Z,8.26
2019-05-03T23:27:09.788Z,8.23
2019-05-03T23:29:39.816Z,8.21
2019-05-03T23:32:09.903Z,8.20
2019-05-03T23:34:39.948Z,8.14
2019-05-03T23:37:10.046Z,8.12
2019-05-03T23:39:40.111Z,8.07
2019-05-03T23:42:10.204Z,8.04
2019-05-03T23:44:40.274Z,8.00
2019-05-03T23:47:14.962Z,7.95
2019-05-03T23:49:45.037Z,7.96
2019-05-03T23:52:26.238Z,7.89
2019-05-03T23:55:01.405Z,7.97
2019-05-03T23:57:31.479Z,7.95
